sensor_id;sensor_type;location;lat;lon;timestamp;P1;durP1;ratioP1;P2;durP2;ratioP2
57325;SDS011;43161;50.950;18.224;2022-12-18T00:01:41;54.40;;;17.90;;
57325;SDS011;43161;50.950;18.224;2022-12-18T00:04:07;55.70;;;17.70;;
57325;SDS011;43161;50.950;18.224;2022-12-18T00:06:40;62.80;;;19.90;;
57325;SDS011;43161;50.950;18.224;2022-12-18T00:09:06;61.80;;;19.10;;
57325;SDS011;43161;50.950;18.224;2022-12-18T00:11:31;56.50;;;17.70;;
57325;SDS011;43161;50.950;18.224;2022-12-18T00:13:58;58.80;;;19.10;;
57325;SDS011;43161;50.950;18.224;2022-12-18T00:16:24;59.40;;;19.10;;
57325;SDS011;43161;50.950;18.224;2022-12-18T00:18:54;53.80;;;17.10;;
57325;SDS011;43161;50.950;18.224;2022-12-18T00:21:21;66.40;;;19.60;;
57325;SDS011;43161;50.950;18.224;2022-12-18T00:23:48;56.80;;;17.10;;
57325;SDS011;43161;50.950;18.224;2022-12-18T00:26:15;55.50;;;17.80;;
57325;SDS011;43161;50.950;18.224;2022-12-18T00:28:43;49.20;;;15.30;;
57325;SDS011;43161;50.950;18.224;2022-12-18T00:31:10;62.30;;;18.80;;
57325;SDS011;43161;50.950;18.224;2022-12-18T00:33:38;58.50;;;15.60;;
57325;SDS011;43161;50.950;18.224;2022-12-18T00:36:08;55.00;;;16.80;;
57325;SDS011;43161;50.950;18.224;2022-12-18T00:38:38;49.90;;;16.70;;
57325;SDS011;43161;50.950;18.224;2022-12-18T00:41:05;55.30;;;18.40;;
57325;SDS011;43161;50.950;18.224;2022-12-18T00:43:31;63.00;;;19.30;;
57325;SDS011;43161;50.950;18.224;2022-12-18T00:46:02;59.40;;;18.30;;
57325;SDS011;43161;50.950;18.224;2022-12-18T00:48:27;58.00;;;17.40;;
57325;SDS011;43161;50.950;18.224;2022-12-18T00:50:53;57.80;;;17.40;;
57325;SDS011;43161;50.950;18.224;2022-12-18T00:53:18;55.50;;;15.80;;
57325;SDS011;43161;50.950;18.224;2022-12-18T00:55:44;61.60;;;18.90;;
57325;SDS011;43161;50.950;18.224;2022-12-18T00:58:11;55.80;;;15.60;;
57325;SDS011;43161;50.950;18.224;2022-12-18T01:00:38;54.60;;;17.00;;
57325;SDS011;43161;50.950;18.224;2022-12-18T01:03:03;46.00;;;15.30;;
57325;SDS011;43161;50.950;18.224;2022-12-18T01:05:30;55.20;;;15.70;;
57325;SDS011;43161;50.950;18.224;2022-12-18T01:07:55;60.90;;;17.00;;
57325;SDS011;43161;50.950;18.224;2022-12-18T01:10:21;59.30;;;17.60;;
57325;SDS011;43161;50.950;18.224;2022-12-18T01:12:48;60.20;;;16.20;;
57325;SDS011;43161;50.950;18.224;2022-12-18T01:15:14;62.20;;;18.30;;
57325;SDS011;43161;50.950;18.224;2022-12-18T01:17:40;52.00;;;15.80;;
57325;SDS011;43161;50.950;18.224;2022-12-18T01:20:05;57.40;;;16.40;;
57325;SDS011;43161;50.950;18.224;2022-12-18T01:22:31;59.50;;;18.10;;
57325;SDS011;43161;50.950;18.224;2022-12-18T01:24:58;56.60;;;17.00;;
57325;SDS011;43161;50.950;18.224;2022-12-18T01:27:24;60.90;;;17.40;;
57325;SDS011;43161;50.950;18.224;2022-12-18T01:29:49;62.80;;;19.10;;
57325;SDS011;43161;50.950;18.224;2022-12-18T01:32:15;66.80;;;19.30;;
57325;SDS011;43161;50.950;18.224;2022-12-18T01:34:40;58.10;;;17.80;;
57325;SDS011;43161;50.950;18.224;2022-12-18T01:37:06;60.80;;;15.70;;
57325;SDS011;43161;50.950;18.224;2022-12-18T01:39:32;53.80;;;16.40;;
57325;SDS011;43161;50.950;18.224;2022-12-18T01:41:58;58.30;;;19.40;;
57325;SDS011;43161;50.950;18.224;2022-12-18T01:50:21;55.00;;;16.00;;
57325;SDS011;43161;50.950;18.224;2022-12-18T01:55:26;59.70;;;16.40;;
57325;SDS011;43161;50.950;18.224;2022-12-18T01:57:55;56.20;;;16.50;;
57325;SDS011;43161;50.950;18.224;2022-12-18T02:00:22;53.00;;;17.40;;
57325;SDS011;43161;50.950;18.224;2022-12-18T02:02:49;55.30;;;16.30;;
57325;SDS011;43161;50.950;18.224;2022-12-18T02:05:16;50.60;;;15.60;;
57325;SDS011;43161;50.950;18.224;2022-12-18T02:18:52;57.30;;;15.40;;
57325;SDS011;43161;50.950;18.224;2022-12-18T02:26:43;44.00;;;13.80;;
57325;SDS011;43161;50.950;18.224;2022-12-18T02:31:43;46.60;;;13.50;;
57325;SDS011;43161;50.950;18.224;2022-12-18T02:34:12;55.80;;;16.20;;
57325;SDS011;43161;50.950;18.224;2022-12-18T02:36:39;54.40;;;15.80;;
57325;SDS011;43161;50.950;18.224;2022-12-18T02:39:06;53.10;;;15.80;;
57325;SDS011;43161;50.950;18.224;2022-12-18T02:41:34;52.90;;;14.70;;
57325;SDS011;43161;50.950;18.224;2022-12-18T02:44:06;50.60;;;16.20;;
57325;SDS011;43161;50.950;18.224;2022-12-18T02:46:38;53.90;;;18.60;;
57325;SDS011;43161;50.950;18.224;2022-12-18T02:52:01;57.60;;;16.50;;
57325;SDS011;43161;50.950;18.224;2022-12-18T02:54:53;55.50;;;17.90;;
57325;SDS011;43161;50.950;18.224;2022-12-18T03:00:08;53.40;;;16.00;;
57325;SDS011;43161;50.950;18.224;2022-12-18T03:02:42;53.00;;;16.70;;
57325;SDS011;43161;50.950;18.224;2022-12-18T03:05:25;46.70;;;14.30;;
57325;SDS011;43161;50.950;18.224;2022-12-18T03:08:03;41.60;;;13.20;;
57325;SDS011;43161;50.950;18.224;2022-12-18T03:10:34;48.50;;;16.70;;
57325;SDS011;43161;50.950;18.224;2022-12-18T03:13:12;43.70;;;14.30;;
57325;SDS011;43161;50.950;18.224;2022-12-18T03:15:41;47.60;;;15.80;;
57325;SDS011;43161;50.950;18.224;2022-12-18T03:20:57;46.20;;;16.20;;
57325;SDS011;43161;50.950;18.224;2022-12-18T03:23:27;52.40;;;15.20;;
57325;SDS011;43161;50.950;18.224;2022-12-18T03:25:56;48.30;;;16.50;;
57325;SDS011;43161;50.950;18.224;2022-12-18T03:28:24;47.10;;;14.90;;
57325;SDS011;43161;50.950;18.224;2022-12-18T03:30:54;43.50;;;15.00;;
57325;SDS011;43161;50.950;18.224;2022-12-18T03:33:25;46.50;;;17.40;;
57325;SDS011;43161;50.950;18.224;2022-12-18T03:35:52;38.20;;;11.50;;
57325;SDS011;43161;50.950;18.224;2022-12-18T03:38:17;41.50;;;13.10;;
57325;SDS011;43161;50.950;18.224;2022-12-18T03:52:02;49.90;;;15.90;;
57325;SDS011;43161;50.950;18.224;2022-12-18T03:54:30;51.90;;;16.10;;
57325;SDS011;43161;50.950;18.224;2022-12-18T03:56:58;44.40;;;15.70;;
57325;SDS011;43161;50.950;18.224;2022-12-18T03:59:29;46.00;;;16.60;;
57325;SDS011;43161;50.950;18.224;2022-12-18T04:01:54;45.40;;;17.70;;
57325;SDS011;43161;50.950;18.224;2022-12-18T04:04:23;39.20;;;12.00;;
57325;SDS011;43161;50.950;18.224;2022-12-18T04:06:50;41.20;;;12.70;;
57325;SDS011;43161;50.950;18.224;2022-12-18T04:09:16;39.40;;;13.10;;
57325;SDS011;43161;50.950;18.224;2022-12-18T04:11:41;42.90;;;13.60;;
57325;SDS011;43161;50.950;18.224;2022-12-18T04:14:09;40.60;;;11.40;;
57325;SDS011;43161;50.950;18.224;2022-12-18T04:16:35;43.00;;;13.00;;
57325;SDS011;43161;50.950;18.224;2022-12-18T04:19:20;37.40;;;12.00;;
57325;SDS011;43161;50.950;18.224;2022-12-18T04:21:46;44.50;;;12.90;;
57325;SDS011;43161;50.950;18.224;2022-12-18T04:24:14;43.70;;;11.40;;
57325;SDS011;43161;50.950;18.224;2022-12-18T04:26:42;45.60;;;14.60;;
57325;SDS011;43161;50.950;18.224;2022-12-18T04:29:07;44.10;;;14.70;;
57325;SDS011;43161;50.950;18.224;2022-12-18T04:31:33;47.90;;;15.70;;
57325;SDS011;43161;50.950;18.224;2022-12-18T04:34:01;52.50;;;17.10;;
57325;SDS011;43161;50.950;18.224;2022-12-18T04:36:27;43.40;;;14.20;;
57325;SDS011;43161;50.950;18.224;2022-12-18T04:38:53;44.80;;;14.30;;
57325;SDS011;43161;50.950;18.224;2022-12-18T04:41:21;40.00;;;12.20;;
57325;SDS011;43161;50.950;18.224;2022-12-18T04:43:46;46.40;;;12.60;;
57325;SDS011;43161;50.950;18.224;2022-12-18T04:46:12;40.10;;;11.30;;
57325;SDS011;43161;50.950;18.224;2022-12-18T04:48:38;37.60;;;10.90;;
57325;SDS011;43161;50.950;18.224;2022-12-18T04:51:03;38.60;;;11.10;;
57325;SDS011;43161;50.950;18.224;2022-12-18T04:53:30;39.20;;;10.80;;
57325;SDS011;43161;50.950;18.224;2022-12-18T04:56:03;45.50;;;12.40;;
57325;SDS011;43161;50.950;18.224;2022-12-18T04:58:31;49.40;;;14.30;;
57325;SDS011;43161;50.950;18.224;2022-12-18T05:00:57;48.90;;;15.50;;
57325;SDS011;43161;50.950;18.224;2022-12-18T05:03:23;44.00;;;16.10;;
57325;SDS011;43161;50.950;18.224;2022-12-18T05:05:49;43.60;;;14.20;;
57325;SDS011;43161;50.950;18.224;2022-12-18T05:08:16;41.20;;;15.60;;
57325;SDS011;43161;50.950;18.224;2022-12-18T05:10:41;45.60;;;17.10;;
57325;SDS011;43161;50.950;18.224;2022-12-18T05:13:07;40.80;;;14.20;;
57325;SDS011;43161;50.950;18.224;2022-12-18T05:15:33;49.00;;;14.30;;
57325;SDS011;43161;50.950;18.224;2022-12-18T05:17:59;50.20;;;18.20;;
57325;SDS011;43161;50.950;18.224;2022-12-18T05:20:25;46.10;;;15.60;;
57325;SDS011;43161;50.950;18.224;2022-12-18T05:22:51;46.30;;;14.10;;
57325;SDS011;43161;50.950;18.224;2022-12-18T05:25:19;47.90;;;16.90;;
57325;SDS011;43161;50.950;18.224;2022-12-18T05:27:46;49.70;;;14.20;;
57325;SDS011;43161;50.950;18.224;2022-12-18T05:30:12;50.10;;;17.10;;
57325;SDS011;43161;50.950;18.224;2022-12-18T05:32:38;44.90;;;14.90;;
57325;SDS011;43161;50.950;18.224;2022-12-18T05:35:05;44.00;;;15.20;;
57325;SDS011;43161;50.950;18.224;2022-12-18T05:37:32;49.30;;;16.20;;
57325;SDS011;43161;50.950;18.224;2022-12-18T05:39:57;49.60;;;16.70;;
57325;SDS011;43161;50.950;18.224;2022-12-18T05:42:23;46.50;;;17.00;;
57325;SDS011;43161;50.950;18.224;2022-12-18T05:44:51;43.00;;;13.80;;
57325;SDS011;43161;50.950;18.224;2022-12-18T05:47:17;48.80;;;19.10;;
57325;SDS011;43161;50.950;18.224;2022-12-18T05:49:46;49.20;;;18.00;;
57325;SDS011;43161;50.950;18.224;2022-12-18T05:52:11;46.10;;;16.30;;
57325;SDS011;43161;50.950;18.224;2022-12-18T05:54:37;46.40;;;16.10;;
57325;SDS011;43161;50.950;18.224;2022-12-18T05:57:02;42.70;;;15.10;;
57325;SDS011;43161;50.950;18.224;2022-12-18T05:59:28;45.20;;;17.50;;
57325;SDS011;43161;50.950;18.224;2022-12-18T06:01:53;48.80;;;16.90;;
57325;SDS011;43161;50.950;18.224;2022-12-18T06:04:19;45.90;;;16.60;;
57325;SDS011;43161;50.950;18.224;2022-12-18T06:06:44;41.80;;;14.60;;
57325;SDS011;43161;50.950;18.224;2022-12-18T06:09:13;47.70;;;15.90;;
57325;SDS011;43161;50.950;18.224;2022-12-18T06:11:38;43.90;;;15.60;;
57325;SDS011;43161;50.950;18.224;2022-12-18T06:14:04;47.60;;;17.10;;
57325;SDS011;43161;50.950;18.224;2022-12-18T06:16:31;57.90;;;24.80;;
57325;SDS011;43161;50.950;18.224;2022-12-18T06:19:00;67.30;;;26.90;;
57325;SDS011;43161;50.950;18.224;2022-12-18T06:21:28;51.20;;;19.80;;
57325;SDS011;43161;50.950;18.224;2022-12-18T06:23:54;50.30;;;19.00;;
57325;SDS011;43161;50.950;18.224;2022-12-18T06:26:20;54.80;;;19.60;;
57325;SDS011;43161;50.950;18.224;2022-12-18T06:28:46;50.30;;;21.80;;
57325;SDS011;43161;50.950;18.224;2022-12-18T06:31:11;53.20;;;21.30;;
57325;SDS011;43161;50.950;18.224;2022-12-18T06:33:37;79.60;;;30.00;;
57325;SDS011;43161;50.950;18.224;2022-12-18T06:36:12;54.50;;;18.30;;
57325;SDS011;43161;50.950;18.224;2022-12-18T06:38:40;65.00;;;23.70;;
57325;SDS011;43161;50.950;18.224;2022-12-18T06:41:11;73.40;;;26.90;;
57325;SDS011;43161;50.950;18.224;2022-12-18T06:43:40;65.00;;;23.60;;
57325;SDS011;43161;50.950;18.224;2022-12-18T06:46:06;107.20;;;39.30;;
57325;SDS011;43161;50.950;18.224;2022-12-18T06:48:32;103.90;;;42.70;;
57325;SDS011;43161;50.950;18.224;2022-12-18T06:50:58;104.70;;;40.40;;
57325;SDS011;43161;50.950;18.224;2022-12-18T06:53:24;90.40;;;30.60;;
57325;SDS011;43161;50.950;18.224;2022-12-18T06:55:50;77.00;;;24.80;;
57325;SDS011;43161;50.950;18.224;2022-12-18T06:58:16;70.70;;;24.60;;
57325;SDS011;43161;50.950;18.224;2022-12-18T07:00:42;59.40;;;19.80;;
57325;SDS011;43161;50.950;18.224;2022-12-18T07:03:08;58.60;;;19.50;;
57325;SDS011;43161;50.950;18.224;2022-12-18T07:05:33;56.90;;;19.10;;
57325;SDS011;43161;50.950;18.224;2022-12-18T07:07:59;64.50;;;21.10;;
57325;SDS011;43161;50.950;18.224;2022-12-18T07:10:24;66.50;;;24.00;;
57325;SDS011;43161;50.950;18.224;2022-12-18T07:12:50;54.40;;;16.70;;
57325;SDS011;43161;50.950;18.224;2022-12-18T07:15:16;64.10;;;23.30;;
57325;SDS011;43161;50.950;18.224;2022-12-18T07:17:41;72.50;;;23.60;;
57325;SDS011;43161;50.950;18.224;2022-12-18T07:20:07;73.60;;;29.00;;
57325;SDS011;43161;50.950;18.224;2022-12-18T07:22:34;83.50;;;28.60;;
57325;SDS011;43161;50.950;18.224;2022-12-18T07:24:59;133.00;;;37.60;;
57325;SDS011;43161;50.950;18.224;2022-12-18T07:27:25;58.20;;;19.60;;
57325;SDS011;43161;50.950;18.224;2022-12-18T07:29:51;57.30;;;21.20;;
57325;SDS011;43161;50.950;18.224;2022-12-18T07:32:16;63.00;;;23.00;;
57325;SDS011;43161;50.950;18.224;2022-12-18T07:34:41;60.30;;;21.30;;
57325;SDS011;43161;50.950;18.224;2022-12-18T07:37:07;68.60;;;24.60;;
57325;SDS011;43161;50.950;18.224;2022-12-18T07:39:32;57.60;;;18.80;;
57325;SDS011;43161;50.950;18.224;2022-12-18T07:41:58;61.80;;;20.20;;
57325;SDS011;43161;50.950;18.224;2022-12-18T07:44:42;62.40;;;23.80;;
57325;SDS011;43161;50.950;18.224;2022-12-18T07:47:08;60.60;;;21.20;;
57325;SDS011;43161;50.950;18.224;2022-12-18T07:49:33;69.90;;;22.50;;
57325;SDS011;43161;50.950;18.224;2022-12-18T07:51:59;87.30;;;28.90;;
57325;SDS011;43161;50.950;18.224;2022-12-18T07:54:24;67.70;;;22.30;;
57325;SDS011;43161;50.950;18.224;2022-12-18T07:56:50;89.40;;;28.50;;
57325;SDS011;43161;50.950;18.224;2022-12-18T07:59:17;72.60;;;22.90;;
57325;SDS011;43161;50.950;18.224;2022-12-18T08:01:43;69.00;;;26.10;;
57325;SDS011;43161;50.950;18.224;2022-12-18T08:04:09;66.70;;;21.70;;
57325;SDS011;43161;50.950;18.224;2022-12-18T08:06:34;55.60;;;18.50;;
57325;SDS011;43161;50.950;18.224;2022-12-18T08:09:00;119.80;;;41.20;;
57325;SDS011;43161;50.950;18.224;2022-12-18T08:11:26;110.80;;;37.70;;
57325;SDS011;43161;50.950;18.224;2022-12-18T08:13:52;69.60;;;26.20;;
57325;SDS011;43161;50.950;18.224;2022-12-18T08:16:18;77.00;;;27.70;;
57325;SDS011;43161;50.950;18.224;2022-12-18T08:18:44;83.10;;;33.10;;
57325;SDS011;43161;50.950;18.224;2022-12-18T08:21:11;53.00;;;17.00;;
57325;SDS011;43161;50.950;18.224;2022-12-18T08:23:38;67.10;;;23.50;;
57325;SDS011;43161;50.950;18.224;2022-12-18T08:26:03;66.60;;;20.40;;
57325;SDS011;43161;50.950;18.224;2022-12-18T08:28:29;54.20;;;18.20;;
57325;SDS011;43161;50.950;18.224;2022-12-18T08:30:54;61.60;;;22.30;;
57325;SDS011;43161;50.950;18.224;2022-12-18T08:33:20;64.60;;;24.20;;
57325;SDS011;43161;50.950;18.224;2022-12-18T08:35:45;59.70;;;22.00;;
57325;SDS011;43161;50.950;18.224;2022-12-18T08:38:11;69.50;;;23.10;;
57325;SDS011;43161;50.950;18.224;2022-12-18T08:40:36;72.60;;;24.90;;
57325;SDS011;43161;50.950;18.224;2022-12-18T08:43:02;73.90;;;25.40;;
57325;SDS011;43161;50.950;18.224;2022-12-18T08:45:45;51.10;;;20.40;;
57325;SDS011;43161;50.950;18.224;2022-12-18T08:48:11;53.00;;;19.20;;
57325;SDS011;43161;50.950;18.224;2022-12-18T08:50:37;60.20;;;22.40;;
57325;SDS011;43161;50.950;18.224;2022-12-18T08:53:02;76.80;;;23.60;;
57325;SDS011;43161;50.950;18.224;2022-12-18T08:55:28;68.40;;;22.80;;
57325;SDS011;43161;50.950;18.224;2022-12-18T08:57:54;74.00;;;23.50;;
57325;SDS011;43161;50.950;18.224;2022-12-18T09:00:19;57.50;;;20.80;;
57325;SDS011;43161;50.950;18.224;2022-12-18T09:02:45;57.30;;;20.00;;
57325;SDS011;43161;50.950;18.224;2022-12-18T09:05:11;64.50;;;21.50;;
57325;SDS011;43161;50.950;18.224;2022-12-18T09:07:36;104.80;;;35.40;;
57325;SDS011;43161;50.950;18.224;2022-12-18T09:10:02;81.30;;;28.00;;
57325;SDS011;43161;50.950;18.224;2022-12-18T09:12:28;68.80;;;27.30;;
57325;SDS011;43161;50.950;18.224;2022-12-18T09:14:54;61.90;;;19.70;;
57325;SDS011;43161;50.950;18.224;2022-12-18T09:17:21;62.60;;;22.40;;
57325;SDS011;43161;50.950;18.224;2022-12-18T09:19:48;65.10;;;21.00;;
57325;SDS011;43161;50.950;18.224;2022-12-18T09:22:14;67.00;;;24.30;;
57325;SDS011;43161;50.950;18.224;2022-12-18T09:24:40;60.90;;;23.40;;
57325;SDS011;43161;50.950;18.224;2022-12-18T09:27:05;55.90;;;21.90;;
57325;SDS011;43161;50.950;18.224;2022-12-18T09:29:31;62.80;;;23.10;;
57325;SDS011;43161;50.950;18.224;2022-12-18T09:31:57;50.40;;;17.40;;
57325;SDS011;43161;50.950;18.224;2022-12-18T09:34:23;57.70;;;21.10;;
57325;SDS011;43161;50.950;18.224;2022-12-18T09:36:48;54.90;;;17.90;;
57325;SDS011;43161;50.950;18.224;2022-12-18T09:39:14;63.10;;;23.00;;
57325;SDS011;43161;50.950;18.224;2022-12-18T09:41:43;60.10;;;19.20;;
57325;SDS011;43161;50.950;18.224;2022-12-18T09:47:01;64.10;;;21.00;;
57325;SDS011;43161;50.950;18.224;2022-12-18T09:49:30;61.00;;;24.10;;
57325;SDS011;43161;50.950;18.224;2022-12-18T09:52:02;51.90;;;21.50;;
57325;SDS011;43161;50.950;18.224;2022-12-18T09:54:38;63.30;;;23.70;;
57325;SDS011;43161;50.950;18.224;2022-12-18T09:57:12;57.10;;;22.90;;
57325;SDS011;43161;50.950;18.224;2022-12-18T09:59:39;66.00;;;25.10;;
57325;SDS011;43161;50.950;18.224;2022-12-18T10:05:02;57.60;;;22.40;;
57325;SDS011;43161;50.950;18.224;2022-12-18T10:07:39;59.70;;;22.30;;
57325;SDS011;43161;50.950;18.224;2022-12-18T10:15:24;58.80;;;23.70;;
57325;SDS011;43161;50.950;18.224;2022-12-18T10:21:04;44.50;;;16.40;;
57325;SDS011;43161;50.950;18.224;2022-12-18T10:26:22;51.50;;;20.00;;
57325;SDS011;43161;50.950;18.224;2022-12-18T10:28:48;50.10;;;18.20;;
57325;SDS011;43161;50.950;18.224;2022-12-18T10:31:19;57.70;;;19.10;;
57325;SDS011;43161;50.950;18.224;2022-12-18T10:33:47;49.60;;;19.00;;
57325;SDS011;43161;50.950;18.224;2022-12-18T10:36:12;63.30;;;25.40;;
57325;SDS011;43161;50.950;18.224;2022-12-18T10:38:38;74.70;;;28.60;;
57325;SDS011;43161;50.950;18.224;2022-12-18T10:41:05;59.60;;;22.70;;
57325;SDS011;43161;50.950;18.224;2022-12-18T10:43:37;74.50;;;27.60;;
57325;SDS011;43161;50.950;18.224;2022-12-18T10:48:52;54.20;;;19.30;;
57325;SDS011;43161;50.950;18.224;2022-12-18T10:51:24;58.20;;;22.70;;
57325;SDS011;43161;50.950;18.224;2022-12-18T10:53:55;54.90;;;22.40;;
57325;SDS011;43161;50.950;18.224;2022-12-18T10:56:22;51.90;;;20.90;;
57325;SDS011;43161;50.950;18.224;2022-12-18T11:07:06;49.10;;;19.40;;
57325;SDS011;43161;50.950;18.224;2022-12-18T11:09:34;51.80;;;19.20;;
57325;SDS011;43161;50.950;18.224;2022-12-18T11:12:02;61.20;;;25.20;;
57325;SDS011;43161;50.950;18.224;2022-12-18T11:17:25;60.30;;;23.80;;
57325;SDS011;43161;50.950;18.224;2022-12-18T11:19:58;67.30;;;24.50;;
57325;SDS011;43161;50.950;18.224;2022-12-18T11:22:26;58.40;;;20.60;;
57325;SDS011;43161;50.950;18.224;2022-12-18T11:27:22;68.70;;;26.30;;
57325;SDS011;43161;50.950;18.224;2022-12-18T11:29:47;63.90;;;24.60;;
57325;SDS011;43161;50.950;18.224;2022-12-18T11:35:03;77.10;;;27.30;;
57325;SDS011;43161;50.950;18.224;2022-12-18T11:37:29;69.20;;;26.20;;
57325;SDS011;43161;50.950;18.224;2022-12-18T11:39:58;74.80;;;24.70;;
57325;SDS011;43161;50.950;18.224;2022-12-18T11:45:02;67.30;;;24.30;;
57325;SDS011;43161;50.950;18.224;2022-12-18T11:50:19;65.60;;;24.00;;
57325;SDS011;43161;50.950;18.224;2022-12-18T11:52:47;64.20;;;22.90;;
57325;SDS011;43161;50.950;18.224;2022-12-18T11:55:14;74.60;;;23.70;;
57325;SDS011;43161;50.950;18.224;2022-12-18T11:57:48;170.00;;;58.50;;
57325;SDS011;43161;50.950;18.224;2022-12-18T12:00:25;71.40;;;23.10;;
57325;SDS011;43161;50.950;18.224;2022-12-18T12:08:26;97.10;;;31.80;;
57325;SDS011;43161;50.950;18.224;2022-12-18T12:13:48;86.20;;;25.00;;
57325;SDS011;43161;50.950;18.224;2022-12-18T12:21:49;87.70;;;26.50;;
57325;SDS011;43161;50.950;18.224;2022-12-18T12:30:19;101.50;;;30.70;;
57325;SDS011;43161;50.950;18.224;2022-12-18T12:38:42;93.60;;;28.70;;
57325;SDS011;43161;50.950;18.224;2022-12-18T12:41:30;77.40;;;23.10;;
57325;SDS011;43161;50.950;18.224;2022-12-18T12:44:17;83.70;;;25.80;;
57325;SDS011;43161;50.950;18.224;2022-12-18T12:46:56;71.60;;;21.80;;
57325;SDS011;43161;50.950;18.224;2022-12-18T12:49:25;83.60;;;25.60;;
57325;SDS011;43161;50.950;18.224;2022-12-18T12:51:56;71.50;;;23.20;;
57325;SDS011;43161;50.950;18.224;2022-12-18T12:54:25;82.60;;;24.80;;
57325;SDS011;43161;50.950;18.224;2022-12-18T13:04:58;111.60;;;34.10;;
57325;SDS011;43161;50.950;18.224;2022-12-18T13:07:38;132.80;;;43.70;;
57325;SDS011;43161;50.950;18.224;2022-12-18T13:20:44;85.10;;;26.20;;
57325;SDS011;43161;50.950;18.224;2022-12-18T13:31:10;84.40;;;30.00;;
57325;SDS011;43161;50.950;18.224;2022-12-18T13:33:37;72.70;;;23.10;;
57325;SDS011;43161;50.950;18.224;2022-12-18T13:41:41;75.60;;;25.20;;
57325;SDS011;43161;50.950;18.224;2022-12-18T13:50:00;122.50;;;39.10;;
57325;SDS011;43161;50.950;18.224;2022-12-18T13:52:28;70.50;;;22.30;;
57325;SDS011;43161;50.950;18.224;2022-12-18T13:54:58;73.10;;;25.20;;
57325;SDS011;43161;50.950;18.224;2022-12-18T13:57:33;97.00;;;30.90;;
57325;SDS011;43161;50.950;18.224;2022-12-18T14:02:50;75.30;;;28.00;;
57325;SDS011;43161;50.950;18.224;2022-12-18T14:05:23;60.20;;;23.80;;
57325;SDS011;43161;50.950;18.224;2022-12-18T14:07:49;73.80;;;25.40;;
57325;SDS011;43161;50.950;18.224;2022-12-18T14:10:15;78.90;;;26.20;;
57325;SDS011;43161;50.950;18.224;2022-12-18T14:12:44;95.70;;;31.40;;
57325;SDS011;43161;50.950;18.224;2022-12-18T14:15:33;68.50;;;23.40;;
57325;SDS011;43161;50.950;18.224;2022-12-18T14:20:44;54.90;;;17.80;;
57325;SDS011;43161;50.950;18.224;2022-12-18T14:26:01;54.20;;;17.10;;
57325;SDS011;43161;50.950;18.224;2022-12-18T14:28:30;58.60;;;18.30;;
57325;SDS011;43161;50.950;18.224;2022-12-18T14:30:56;127.50;;;33.10;;
57325;SDS011;43161;50.950;18.224;2022-12-18T14:33:23;72.90;;;22.20;;
57325;SDS011;43161;50.950;18.224;2022-12-18T14:35:55;71.40;;;22.60;;
57325;SDS011;43161;50.950;18.224;2022-12-18T14:38:31;69.20;;;20.60;;
57325;SDS011;43161;50.950;18.224;2022-12-18T14:41:01;71.80;;;25.10;;
57325;SDS011;43161;50.950;18.224;2022-12-18T14:43:36;69.60;;;22.90;;
57325;SDS011;43161;50.950;18.224;2022-12-18T14:46:04;78.00;;;24.40;;
57325;SDS011;43161;50.950;18.224;2022-12-18T14:48:38;86.40;;;27.00;;
57325;SDS011;43161;50.950;18.224;2022-12-18T14:53:56;102.40;;;29.50;;
57325;SDS011;43161;50.950;18.224;2022-12-18T14:59:00;89.70;;;26.80;;
57325;SDS011;43161;50.950;18.224;2022-12-18T15:01:31;90.30;;;28.20;;
57325;SDS011;43161;50.950;18.224;2022-12-18T15:04:00;85.70;;;25.10;;
57325;SDS011;43161;50.950;18.224;2022-12-18T15:14:24;74.80;;;24.60;;
57325;SDS011;43161;50.950;18.224;2022-12-18T15:16:57;67.10;;;23.10;;
57325;SDS011;43161;50.950;18.224;2022-12-18T15:25:03;110.60;;;32.10;;
57325;SDS011;43161;50.950;18.224;2022-12-18T15:27:52;104.50;;;32.10;;
57325;SDS011;43161;50.950;18.224;2022-12-18T15:30:19;118.40;;;32.40;;
57325;SDS011;43161;50.950;18.224;2022-12-18T15:32:47;123.60;;;35.20;;
57325;SDS011;43161;50.950;18.224;2022-12-18T15:35:18;141.80;;;40.60;;
57325;SDS011;43161;50.950;18.224;2022-12-18T15:37:46;163.00;;;45.10;;
57325;SDS011;43161;50.950;18.224;2022-12-18T15:40:13;153.20;;;44.00;;
57325;SDS011;43161;50.950;18.224;2022-12-18T15:42:43;135.50;;;39.50;;
57325;SDS011;43161;50.950;18.224;2022-12-18T15:45:28;133.20;;;38.90;;
57325;SDS011;43161;50.950;18.224;2022-12-18T15:47:54;130.00;;;38.70;;
57325;SDS011;43161;50.950;18.224;2022-12-18T15:50:20;128.60;;;37.30;;
57325;SDS011;43161;50.950;18.224;2022-12-18T15:52:46;110.80;;;34.30;;
57325;SDS011;43161;50.950;18.224;2022-12-18T15:55:16;94.70;;;29.10;;
57325;SDS011;43161;50.950;18.224;2022-12-18T15:58:02;95.70;;;30.00;;
57325;SDS011;43161;50.950;18.224;2022-12-18T16:00:29;94.70;;;28.70;;
57325;SDS011;43161;50.950;18.224;2022-12-18T16:02:54;104.50;;;30.70;;
57325;SDS011;43161;50.950;18.224;2022-12-18T16:05:20;133.00;;;35.10;;
57325;SDS011;43161;50.950;18.224;2022-12-18T16:07:46;132.40;;;40.70;;
57325;SDS011;43161;50.950;18.224;2022-12-18T16:10:12;139.70;;;46.10;;
57325;SDS011;43161;50.950;18.224;2022-12-18T16:12:38;148.30;;;45.00;;
57325;SDS011;43161;50.950;18.224;2022-12-18T16:15:04;142.70;;;42.10;;
57325;SDS011;43161;50.950;18.224;2022-12-18T16:17:31;143.30;;;44.40;;
57325;SDS011;43161;50.950;18.224;2022-12-18T16:19:57;160.50;;;46.40;;
57325;SDS011;43161;50.950;18.224;2022-12-18T16:22:23;144.20;;;46.50;;
57325;SDS011;43161;50.950;18.224;2022-12-18T16:24:52;136.00;;;46.20;;
57325;SDS011;43161;50.950;18.224;2022-12-18T16:27:18;135.30;;;43.50;;
57325;SDS011;43161;50.950;18.224;2022-12-18T16:29:45;163.10;;;48.30;;
57325;SDS011;43161;50.950;18.224;2022-12-18T16:32:12;156.40;;;49.40;;
57325;SDS011;43161;50.950;18.224;2022-12-18T16:34:39;140.20;;;46.30;;
57325;SDS011;43161;50.950;18.224;2022-12-18T16:37:06;124.80;;;42.20;;
57325;SDS011;43161;50.950;18.224;2022-12-18T16:39:33;126.80;;;41.90;;
57325;SDS011;43161;50.950;18.224;2022-12-18T16:42:00;113.10;;;40.30;;
57325;SDS011;43161;50.950;18.224;2022-12-18T16:44:37;123.00;;;41.30;;
57325;SDS011;43161;50.950;18.224;2022-12-18T16:47:03;124.80;;;42.10;;
57325;SDS011;43161;50.950;18.224;2022-12-18T16:49:29;124.20;;;42.00;;
57325;SDS011;43161;50.950;18.224;2022-12-18T16:51:55;125.70;;;40.10;;
57325;SDS011;43161;50.950;18.224;2022-12-18T16:54:21;116.30;;;40.10;;
57325;SDS011;43161;50.950;18.224;2022-12-18T16:56:46;127.80;;;40.20;;
57325;SDS011;43161;50.950;18.224;2022-12-18T16:59:14;131.40;;;41.40;;
57325;SDS011;43161;50.950;18.224;2022-12-18T17:01:40;125.80;;;42.60;;
57325;SDS011;43161;50.950;18.224;2022-12-18T17:04:06;129.40;;;41.50;;
57325;SDS011;43161;50.950;18.224;2022-12-18T17:06:33;129.40;;;41.50;;
57325;SDS011;43161;50.950;18.224;2022-12-18T17:09:02;121.20;;;37.30;;
57325;SDS011;43161;50.950;18.224;2022-12-18T17:11:33;132.90;;;40.10;;